DLH44C EDDF-LPPR
Flight info
| Callsign | DLH44C |
|---|---|
| Flight time | 2h 27m |
| Altitude | 35000 |
| Route | SOBRA2L/18 SOBRA Y180 DIK UN857 TOLVU DCT RAPOR DCT GIMER DCT ESTOC UT300 PON UN872 GODIX/N0429F310 UN872 DIDAK/N0451F370 UN872 TERPO/N0444F350 UN872 ERIGA UZ218 FUJTI DCT ATLEN DCT INSID T326 ASPOR |
| Aircraft | A321/M-SDE2E3FGIJ1LORWXYZ/HB1 |
Departure
| Time | 2026-05-04 10:54 |
|---|---|
| Airport | Frankfurt Main Airport (EDDF) |
Arrival
| Time | 2026-05-04 13:21 |
|---|---|
| Airport | Francisco de Sá Carneiro Airport (LPPR) |
| Time | Latitude | Longitude | Altitude | Speed | Heading |
|---|---|---|---|---|---|
| 2026-05-04 10:19 | 50.04753 | 8.56881 | 356 ft | 0 kts | 294° |
| 2026-05-04 10:41 | 50.04749 | 8.56895 | 363 ft | 3 kts | 294° |
| 2026-05-04 10:41 | 50.04741 | 8.56924 | 356 ft | 3 kts | 294° |
| 2026-05-04 10:42 | 50.04734 | 8.56948 | 356 ft | 3 kts | 289° |
| 2026-05-04 10:42 | 50.04731 | 8.56975 | 358 ft | 3 kts | 247° |
| 2026-05-04 10:42 | 50.04741 | 8.56996 | 365 ft | 3 kts | 208° |
| 2026-05-04 10:42 | 50.04742 | 8.56998 | 362 ft | 3 kts | 204° |
| 2026-05-04 10:43 | 50.04724 | 8.56984 | 361 ft | 3 kts | 204° |
| 2026-05-04 10:44 | 50.04657 | 8.56937 | 356 ft | 0 kts | 205° |
| 2026-05-04 10:46 | 50.04646 | 8.56929 | 356 ft | 4 kts | 205° |
| 2026-05-04 10:46 | 50.04615 | 8.56914 | 356 ft | 5 kts | 194° |
| 2026-05-04 10:46 | 50.04576 | 8.56899 | 365 ft | 6 kts | 193° |
| 2026-05-04 10:47 | 50.04528 | 8.56881 | 362 ft | 10 kts | 193° |
| 2026-05-04 10:47 | 50.04458 | 8.56843 | 360 ft | 11 kts | 220° |
| 2026-05-04 10:47 | 50.04427 | 8.56722 | 365 ft | 14 kts | 251° |
| 2026-05-04 10:47 | 50.04389 | 8.56565 | 357 ft | 17 kts | 249° |
| 2026-05-04 10:49 | 50.04005 | 8.54959 | 360 ft | 25 kts | 250° |
| 2026-05-04 10:49 | 50.03943 | 8.54694 | 355 ft | 27 kts | 250° |
| 2026-05-04 10:50 | 50.03877 | 8.54422 | 354 ft | 27 kts | 249° |
| 2026-05-04 10:51 | 50.03380 | 8.52595 | 334 ft | 17 kts | 196° |
| 2026-05-04 10:52 | 50.03339 | 8.52593 | 334 ft | 12 kts | 179° |
| 2026-05-04 10:52 | 50.02984 | 8.52599 | 334 ft | 89 kts | 179° |
| 2026-05-04 10:52 | 50.02143 | 8.52606 | 335 ft | 151 kts | 180° |
| 2026-05-04 10:54 | 49.92398 | 8.53136 | 3889 ft | 230 kts | 180° |
| 2026-05-04 10:54 | 49.90797 | 8.53250 | 4335 ft | 232 kts | 180° |
| 2026-05-04 10:56 | 49.79023 | 8.48811 | 9007 ft | 272 kts | 201° |
| 2026-05-04 10:56 | 49.77378 | 8.47374 | 9728 ft | 274 kts | 222° |
| 2026-05-04 10:56 | 49.76265 | 8.44974 | 10381 ft | 280 kts | 246° |
| 2026-05-04 10:57 | 49.75895 | 8.41908 | 10575 ft | 306 kts | 272° |
| 2026-05-04 10:57 | 49.76348 | 8.38587 | 10751 ft | 327 kts | 282° |
| 2026-05-04 10:57 | 49.76929 | 8.35112 | 11218 ft | 335 kts | 282° |
| 2026-05-04 10:57 | 49.77514 | 8.31600 | 11827 ft | 339 kts | 282° |
| 2026-05-04 10:58 | 49.78096 | 8.28057 | 12461 ft | 342 kts | 282° |
| 2026-05-04 10:58 | 49.78680 | 8.24453 | 13073 ft | 346 kts | 282° |
| 2026-05-04 10:58 | 49.79263 | 8.20831 | 13694 ft | 349 kts | 281° |
| 2026-05-04 10:58 | 49.79850 | 8.17158 | 14245 ft | 353 kts | 281° |
| 2026-05-04 10:59 | 49.80438 | 8.13457 | 14789 ft | 356 kts | 281° |
| 2026-05-04 10:59 | 49.81029 | 8.09707 | 15329 ft | 360 kts | 281° |
| 2026-05-04 10:59 | 49.81624 | 8.05944 | 15888 ft | 362 kts | 281° |
| 2026-05-04 10:59 | 49.82229 | 8.02131 | 16448 ft | 365 kts | 281° |
| 2026-05-04 11:00 | 49.82837 | 7.98311 | 16996 ft | 368 kts | 281° |
| 2026-05-04 11:01 | 49.87150 | 7.70729 | 20452 ft | 384 kts | 280° |
| 2026-05-04 11:02 | 49.87788 | 7.66690 | 20861 ft | 386 kts | 280° |
| 2026-05-04 11:02 | 49.88422 | 7.62642 | 21294 ft | 389 kts | 280° |
| 2026-05-04 11:05 | 49.97408 | 7.03431 | 26623 ft | 416 kts | 278° |
| 2026-05-04 11:06 | 49.98051 | 6.99095 | 26946 ft | 418 kts | 278° |
| 2026-05-04 11:06 | 49.98701 | 6.94683 | 27297 ft | 420 kts | 278° |
| 2026-05-04 11:06 | 49.99174 | 6.90236 | 27686 ft | 415 kts | 270° |
| 2026-05-04 11:06 | 49.99202 | 6.85775 | 28046 ft | 412 kts | 263° |
| 2026-05-04 11:08 | 49.97632 | 6.54188 | 30145 ft | 417 kts | 248° |
| 2026-05-04 11:10 | 49.89638 | 6.25338 | 32148 ft | 414 kts | 242° |
| 2026-05-04 11:12 | 49.79734 | 5.99021 | 34320 ft | 399 kts | 232° |
| 2026-05-04 11:12 | 49.78117 | 5.95520 | 34516 ft | 400 kts | 232° |
| 2026-05-04 11:12 | 49.76498 | 5.92023 | 34700 ft | 400 kts | 232° |
| 2026-05-04 11:12 | 49.74942 | 5.88515 | 34891 ft | 402 kts | 237° |
| 2026-05-04 11:13 | 49.73668 | 5.84664 | 35002 ft | 403 kts | 245° |
| 2026-05-04 11:13 | 49.72702 | 5.80600 | 35020 ft | 403 kts | 246° |
| 2026-05-04 11:13 | 49.70800 | 5.72416 | 35007 ft | 401 kts | 246° |
| 2026-05-04 11:14 | 49.68903 | 5.64309 | 35013 ft | 401 kts | 246° |
| 2026-05-04 11:16 | 49.61358 | 5.31967 | 35013 ft | 402 kts | 248° |
| 2026-05-04 11:16 | 49.59614 | 5.23752 | 35016 ft | 403 kts | 248° |
| 2026-05-04 11:17 | 49.57976 | 5.15410 | 35014 ft | 405 kts | 250° |
| 2026-05-04 11:19 | 49.52389 | 4.83299 | 35018 ft | 405 kts | 250° |
| 2026-05-04 11:19 | 49.50874 | 4.74949 | 35013 ft | 405 kts | 250° |
| 2026-05-04 11:20 | 49.49355 | 4.66598 | 35014 ft | 406 kts | 250° |
| 2026-05-04 11:20 | 49.47591 | 4.56884 | 35016 ft | 406 kts | 250° |
| 2026-05-04 11:22 | 49.41675 | 4.24763 | 35018 ft | 408 kts | 249° |
| 2026-05-04 11:23 | 49.40120 | 4.16391 | 35013 ft | 408 kts | 249° |
| 2026-05-04 11:25 | 49.34928 | 3.86938 | 35006 ft | 411 kts | 253° |
| 2026-05-04 11:25 | 49.33793 | 3.78337 | 35007 ft | 412 kts | 253° |
| 2026-05-04 11:27 | 49.28230 | 3.39853 | 34994 ft | 412 kts | 252° |
| 2026-05-04 11:28 | 49.26966 | 3.31295 | 34989 ft | 413 kts | 252° |
| 2026-05-04 11:28 | 49.25688 | 3.22703 | 34984 ft | 413 kts | 252° |
| 2026-05-04 11:29 | 49.24411 | 3.14130 | 34983 ft | 414 kts | 252° |
| 2026-05-04 11:29 | 49.23121 | 3.05519 | 34997 ft | 415 kts | 252° |
| 2026-05-04 11:33 | 49.13829 | 2.45062 | 35018 ft | 419 kts | 252° |
| 2026-05-04 11:33 | 49.12663 | 2.36334 | 35013 ft | 422 kts | 257° |
| 2026-05-04 11:34 | 49.11859 | 2.27450 | 34996 ft | 423 kts | 257° |
| 2026-05-04 11:34 | 49.11028 | 2.18562 | 35015 ft | 423 kts | 257° |
| 2026-05-04 11:35 | 49.10184 | 2.09667 | 35006 ft | 424 kts | 257° |
| 2026-05-04 11:35 | 49.08833 | 2.01004 | 34999 ft | 416 kts | 243° |
| 2026-05-04 11:36 | 49.06445 | 1.93010 | 34996 ft | 415 kts | 241° |
| 2026-05-04 11:36 | 49.04033 | 1.85027 | 35005 ft | 415 kts | 241° |
| 2026-05-04 11:37 | 49.01620 | 1.77033 | 35006 ft | 415 kts | 241° |
| 2026-05-04 11:37 | 48.99207 | 1.69051 | 35018 ft | 416 kts | 241° |
| 2026-05-04 11:38 | 48.96783 | 1.61062 | 34995 ft | 416 kts | 241° |
| 2026-05-04 11:38 | 48.94336 | 1.53070 | 34998 ft | 417 kts | 241° |
| 2026-05-04 11:39 | 48.91875 | 1.45066 | 35000 ft | 418 kts | 241° |
| 2026-05-04 11:41 | 48.83242 | 1.17040 | 34998 ft | 421 kts | 241° |
| 2026-05-04 11:41 | 48.80741 | 1.09000 | 34996 ft | 422 kts | 241° |
| 2026-05-04 11:42 | 48.78234 | 1.00963 | 34993 ft | 422 kts | 241° |
| 2026-05-04 11:42 | 48.75718 | 0.92929 | 34992 ft | 422 kts | 241° |
| 2026-05-04 11:43 | 48.72946 | 0.85124 | 35003 ft | 420 kts | 236° |
| 2026-05-04 11:43 | 48.69896 | 0.77585 | 34995 ft | 420 kts | 236° |
| 2026-05-04 11:44 | 48.66843 | 0.70045 | 34993 ft | 421 kts | 236° |
| 2026-05-04 11:44 | 48.63791 | 0.62543 | 34986 ft | 421 kts | 235° |
| 2026-05-04 11:45 | 48.60717 | 0.55014 | 34989 ft | 421 kts | 236° |
| 2026-05-04 11:45 | 48.57647 | 0.47484 | 34990 ft | 421 kts | 236° |
| 2026-05-04 11:46 | 48.54544 | 0.39916 | 35002 ft | 421 kts | 236° |
| 2026-05-04 11:46 | 48.51483 | 0.32470 | 34995 ft | 420 kts | 236° |
| 2026-05-04 11:47 | 48.48399 | 0.24982 | 34992 ft | 420 kts | 235° |
| 2026-05-04 11:47 | 48.45309 | 0.17518 | 34989 ft | 420 kts | 235° |
| 2026-05-04 11:48 | 48.42193 | 0.10016 | 34998 ft | 419 kts | 235° |
| 2026-05-04 11:48 | 48.39118 | 0.02628 | 34993 ft | 419 kts | 235° |
| 2026-05-04 11:49 | 48.35990 | -0.04828 | 35006 ft | 419 kts | 234° |
| 2026-05-04 11:49 | 48.32649 | -0.11919 | 34996 ft | 419 kts | 231° |
| 2026-05-04 11:50 | 48.29099 | -0.18857 | 34990 ft | 419 kts | 230° |
| 2026-05-04 11:50 | 48.25548 | -0.25813 | 34986 ft | 420 kts | 230° |
| 2026-05-04 11:51 | 48.22011 | -0.32768 | 34986 ft | 420 kts | 230° |
| 2026-05-04 11:51 | 48.18463 | -0.39723 | 34995 ft | 419 kts | 230° |
| 2026-05-04 11:52 | 48.14919 | -0.46648 | 34978 ft | 419 kts | 230° |
| 2026-05-04 11:52 | 48.11356 | -0.53571 | 34996 ft | 419 kts | 230° |
| 2026-05-04 11:53 | 48.07800 | -0.60497 | 34991 ft | 419 kts | 230° |
| 2026-05-04 11:53 | 48.04237 | -0.67396 | 34991 ft | 419 kts | 230° |
| 2026-05-04 11:55 | 47.89958 | -0.94905 | 35003 ft | 417 kts | 230° |
| 2026-05-04 11:56 | 47.86395 | -1.01715 | 35008 ft | 417 kts | 230° |
| 2026-05-04 11:56 | 47.82834 | -1.08506 | 34991 ft | 416 kts | 230° |
| 2026-05-04 11:57 | 47.79271 | -1.15288 | 35002 ft | 416 kts | 230° |
| 2026-05-04 11:57 | 47.75708 | -1.22064 | 35001 ft | 416 kts | 230° |
| 2026-05-04 11:58 | 47.72141 | -1.28825 | 35017 ft | 415 kts | 230° |
| 2026-05-04 11:58 | 47.68571 | -1.35568 | 35001 ft | 416 kts | 229° |
| 2026-05-04 11:59 | 47.64993 | -1.42313 | 34998 ft | 416 kts | 229° |
| 2026-05-04 11:59 | 47.61414 | -1.49054 | 34999 ft | 416 kts | 229° |
| 2026-05-04 12:00 | 47.57751 | -1.55680 | 34995 ft | 415 kts | 226° |
| 2026-05-04 12:00 | 47.53879 | -1.62000 | 35000 ft | 414 kts | 225° |
| 2026-05-04 12:01 | 47.49972 | -1.68250 | 35022 ft | 414 kts | 225° |
| 2026-05-04 12:02 | 47.37054 | -1.89372 | 35006 ft | 417 kts | 226° |
| 2026-05-04 12:03 | 47.32692 | -1.94889 | 35004 ft | 413 kts | 210° |
| 2026-05-04 12:03 | 47.27768 | -1.99281 | 35007 ft | 414 kts | 210° |
| 2026-05-04 12:04 | 47.22839 | -2.03677 | 35010 ft | 414 kts | 210° |
| 2026-05-04 12:04 | 47.17907 | -2.08072 | 35024 ft | 415 kts | 210° |
| 2026-05-04 12:05 | 47.12956 | -2.12472 | 35003 ft | 416 kts | 210° |
| 2026-05-04 12:05 | 47.07995 | -2.16880 | 34995 ft | 417 kts | 210° |
| 2026-05-04 12:06 | 47.03031 | -2.21292 | 34999 ft | 418 kts | 210° |
| 2026-05-04 12:06 | 46.98060 | -2.25692 | 35002 ft | 418 kts | 210° |
| 2026-05-04 12:07 | 46.93075 | -2.30087 | 35012 ft | 418 kts | 210° |
| 2026-05-04 12:07 | 46.88125 | -2.34440 | 35018 ft | 418 kts | 210° |
| 2026-05-04 12:08 | 46.83147 | -2.38814 | 35021 ft | 417 kts | 210° |
| 2026-05-04 12:08 | 46.78173 | -2.43180 | 35018 ft | 417 kts | 210° |
| 2026-05-04 12:09 | 46.73196 | -2.47544 | 35033 ft | 418 kts | 210° |
| 2026-05-04 12:09 | 46.68179 | -2.51930 | 35025 ft | 417 kts | 210° |
| 2026-05-04 12:10 | 46.63196 | -2.56266 | 35020 ft | 417 kts | 210° |
| 2026-05-04 12:10 | 46.58213 | -2.60602 | 35018 ft | 418 kts | 210° |
| 2026-05-04 12:11 | 46.53258 | -2.64907 | 35011 ft | 418 kts | 210° |
| 2026-05-04 12:11 | 46.48271 | -2.69229 | 35012 ft | 418 kts | 210° |
| 2026-05-04 12:12 | 46.43277 | -2.73551 | 35021 ft | 418 kts | 210° |
| 2026-05-04 12:12 | 46.38279 | -2.77859 | 35021 ft | 418 kts | 210° |
| 2026-05-04 12:14 | 46.19096 | -2.97073 | 35002 ft | 424 kts | 219° |
| 2026-05-04 12:15 | 46.14591 | -3.02564 | 35010 ft | 424 kts | 219° |
| 2026-05-04 12:15 | 46.10082 | -3.08055 | 35011 ft | 425 kts | 219° |
| 2026-05-04 12:16 | 46.05566 | -3.13533 | 35014 ft | 425 kts | 219° |
| 2026-05-04 12:16 | 46.01032 | -3.19010 | 35036 ft | 425 kts | 219° |
| 2026-05-04 12:17 | 45.96500 | -3.24484 | 35030 ft | 426 kts | 219° |
| 2026-05-04 12:17 | 45.91970 | -3.29965 | 35029 ft | 426 kts | 219° |
| 2026-05-04 12:18 | 45.87439 | -3.35438 | 35032 ft | 425 kts | 219° |
| 2026-05-04 12:18 | 45.82904 | -3.40881 | 35033 ft | 425 kts | 219° |
| 2026-05-04 12:19 | 45.78365 | -3.46307 | 35035 ft | 424 kts | 219° |
| 2026-05-04 12:19 | 45.73836 | -3.51717 | 35035 ft | 424 kts | 219° |
| 2026-05-04 12:20 | 45.69296 | -3.57120 | 35044 ft | 424 kts | 219° |
| 2026-05-04 12:20 | 45.64770 | -3.62515 | 35041 ft | 423 kts | 219° |
| 2026-05-04 12:21 | 45.60256 | -3.67890 | 35034 ft | 423 kts | 219° |
| 2026-05-04 12:21 | 45.55728 | -3.73251 | 35034 ft | 422 kts | 219° |
| 2026-05-04 12:22 | 45.51206 | -3.78586 | 35037 ft | 422 kts | 219° |
| 2026-05-04 12:22 | 45.46680 | -3.83914 | 35040 ft | 422 kts | 219° |
| 2026-05-04 12:23 | 45.42163 | -3.89234 | 35053 ft | 421 kts | 219° |
| 2026-05-04 12:23 | 45.37677 | -3.94516 | 35045 ft | 422 kts | 219° |
| 2026-05-04 12:24 | 45.33145 | -3.99824 | 35040 ft | 422 kts | 219° |
| 2026-05-04 12:24 | 45.28617 | -4.05124 | 35031 ft | 422 kts | 219° |
| 2026-05-04 12:25 | 45.24086 | -4.10410 | 35034 ft | 422 kts | 219° |
| 2026-05-04 12:25 | 45.19554 | -4.15689 | 35037 ft | 422 kts | 219° |
| 2026-05-04 12:26 | 45.15020 | -4.20970 | 35036 ft | 421 kts | 219° |
| 2026-05-04 12:26 | 45.10493 | -4.26229 | 35030 ft | 421 kts | 219° |
| 2026-05-04 12:27 | 45.05951 | -4.31478 | 35037 ft | 421 kts | 219° |
| 2026-05-04 12:27 | 45.01416 | -4.36709 | 35039 ft | 421 kts | 219° |
| 2026-05-04 12:28 | 44.96881 | -4.41946 | 35039 ft | 421 kts | 219° |
| 2026-05-04 12:28 | 44.92343 | -4.47176 | 35040 ft | 421 kts | 219° |
| 2026-05-04 12:29 | 44.87811 | -4.52376 | 35040 ft | 420 kts | 219° |
| 2026-05-04 12:29 | 44.83295 | -4.57542 | 35056 ft | 420 kts | 219° |
| 2026-05-04 12:30 | 44.78755 | -4.62727 | 35050 ft | 420 kts | 219° |
| 2026-05-04 12:30 | 44.74192 | -4.67933 | 35049 ft | 420 kts | 219° |
| 2026-05-04 12:31 | 44.69680 | -4.73068 | 35046 ft | 420 kts | 219° |
| 2026-05-04 12:31 | 44.65134 | -4.78226 | 35048 ft | 420 kts | 219° |
| 2026-05-04 12:32 | 44.58321 | -4.85944 | 35042 ft | 420 kts | 219° |
| 2026-05-04 12:33 | 44.53776 | -4.91079 | 35046 ft | 419 kts | 219° |
| 2026-05-04 12:33 | 44.49216 | -4.96177 | 35048 ft | 419 kts | 217° |
| 2026-05-04 12:34 | 44.44499 | -5.00987 | 35049 ft | 420 kts | 215° |
| 2026-05-04 12:34 | 44.39721 | -5.05664 | 35046 ft | 419 kts | 215° |
| 2026-05-04 12:35 | 44.34961 | -5.10379 | 35045 ft | 419 kts | 216° |
| 2026-05-04 12:35 | 44.30218 | -5.15127 | 35038 ft | 419 kts | 216° |
| 2026-05-04 12:36 | 44.25474 | -5.19875 | 35045 ft | 419 kts | 216° |
| 2026-05-04 12:36 | 44.20733 | -5.24609 | 35047 ft | 419 kts | 216° |
| 2026-05-04 12:37 | 44.15986 | -5.29339 | 35052 ft | 419 kts | 216° |
| 2026-05-04 12:37 | 44.11238 | -5.34048 | 35062 ft | 419 kts | 216° |
| 2026-05-04 12:38 | 44.06491 | -5.38752 | 35054 ft | 419 kts | 216° |
| 2026-05-04 12:38 | 44.01724 | -5.43445 | 35051 ft | 420 kts | 216° |
| 2026-05-04 12:39 | 43.96957 | -5.48138 | 35051 ft | 420 kts | 216° |
| 2026-05-04 12:39 | 43.92196 | -5.52841 | 35051 ft | 420 kts | 216° |
| 2026-05-04 12:40 | 43.87431 | -5.57532 | 35040 ft | 420 kts | 216° |
| 2026-05-04 12:40 | 43.82665 | -5.62193 | 35052 ft | 420 kts | 216° |
| 2026-05-04 12:41 | 43.77896 | -5.66859 | 35052 ft | 420 kts | 216° |
| 2026-05-04 12:41 | 43.73124 | -5.71524 | 35064 ft | 419 kts | 216° |
| 2026-05-04 12:42 | 43.68354 | -5.76172 | 35050 ft | 420 kts | 216° |
| 2026-05-04 12:42 | 43.63585 | -5.80817 | 35054 ft | 420 kts | 216° |
| 2026-05-04 12:43 | 43.58802 | -5.85469 | 35068 ft | 420 kts | 216° |
| 2026-05-04 12:43 | 43.54019 | -5.90101 | 35072 ft | 420 kts | 216° |
| 2026-05-04 12:44 | 43.49263 | -5.94690 | 35074 ft | 420 kts | 216° |
| 2026-05-04 12:44 | 43.44474 | -5.99311 | 35067 ft | 420 kts | 217° |
| 2026-05-04 12:45 | 43.39655 | -6.03957 | 35069 ft | 420 kts | 217° |
| 2026-05-04 12:45 | 43.34899 | -6.08529 | 35065 ft | 420 kts | 216° |
| 2026-05-04 12:46 | 43.30115 | -6.13107 | 35060 ft | 419 kts | 217° |
| 2026-05-04 12:46 | 43.25342 | -6.17675 | 35030 ft | 419 kts | 217° |
| 2026-05-04 12:47 | 43.21330 | -6.21508 | 35032 ft | 419 kts | 217° |
| 2026-05-04 12:47 | 43.15769 | -6.26813 | 35030 ft | 419 kts | 217° |
| 2026-05-04 12:48 | 43.10989 | -6.31377 | 35031 ft | 419 kts | 217° |
| 2026-05-04 12:48 | 43.06986 | -6.35189 | 35021 ft | 418 kts | 217° |
| 2026-05-04 12:49 | 43.02207 | -6.39722 | 35017 ft | 418 kts | 217° |
| 2026-05-04 12:49 | 42.97424 | -6.44242 | 35019 ft | 417 kts | 217° |
| 2026-05-04 12:50 | 42.92649 | -6.48746 | 35027 ft | 417 kts | 217° |
| 2026-05-04 12:50 | 42.87880 | -6.53245 | 35016 ft | 417 kts | 217° |
| 2026-05-04 12:51 | 42.83108 | -6.57747 | 35005 ft | 417 kts | 217° |
| 2026-05-04 12:51 | 42.78340 | -6.62228 | 35009 ft | 417 kts | 218° |
| 2026-05-04 12:52 | 42.73560 | -6.66710 | 35020 ft | 417 kts | 218° |
| 2026-05-04 12:52 | 42.68785 | -6.71178 | 35030 ft | 416 kts | 218° |
| 2026-05-04 12:53 | 42.64014 | -6.75635 | 35024 ft | 416 kts | 217° |
| 2026-05-04 12:53 | 42.59242 | -6.80082 | 35025 ft | 416 kts | 217° |
| 2026-05-04 12:54 | 42.54465 | -6.84528 | 35043 ft | 416 kts | 218° |
| 2026-05-04 12:54 | 42.49688 | -6.88961 | 35036 ft | 417 kts | 218° |
| 2026-05-04 12:55 | 42.44929 | -6.93375 | 35033 ft | 417 kts | 217° |
| 2026-05-04 12:55 | 42.40106 | -6.97834 | 35005 ft | 417 kts | 218° |
| 2026-05-04 12:56 | 42.35348 | -7.02235 | 34954 ft | 417 kts | 218° |
| 2026-05-04 12:56 | 42.32965 | -7.04432 | 34720 ft | 414 kts | 218° |
| 2026-05-04 12:56 | 42.30592 | -7.06620 | 34485 ft | 411 kts | 219° |
| 2026-05-04 12:56 | 42.28411 | -7.09054 | 34255 ft | 404 kts | 228° |
| 2026-05-04 12:57 | 42.26552 | -7.11867 | 34024 ft | 398 kts | 236° |
| 2026-05-04 12:57 | 42.25024 | -7.14957 | 33764 ft | 394 kts | 240° |
| 2026-05-04 12:57 | 42.23593 | -7.18093 | 33489 ft | 392 kts | 240° |
| 2026-05-04 12:57 | 42.22158 | -7.21207 | 33212 ft | 390 kts | 240° |
| 2026-05-04 12:58 | 42.20735 | -7.24288 | 32957 ft | 387 kts | 240° |
| 2026-05-04 12:58 | 42.19316 | -7.27354 | 32688 ft | 384 kts | 240° |
| 2026-05-04 12:58 | 42.17903 | -7.30400 | 32441 ft | 381 kts | 240° |
| 2026-05-04 12:58 | 42.16505 | -7.33414 | 32149 ft | 378 kts | 240° |
| 2026-05-04 12:59 | 42.15117 | -7.36409 | 31893 ft | 374 kts | 240° |
| 2026-05-04 12:59 | 42.13743 | -7.39371 | 31636 ft | 372 kts | 240° |
| 2026-05-04 12:59 | 42.12374 | -7.42316 | 31379 ft | 369 kts | 240° |
| 2026-05-04 12:59 | 42.11016 | -7.45238 | 31134 ft | 367 kts | 240° |
| 2026-05-04 13:00 | 42.09666 | -7.48140 | 30884 ft | 364 kts | 240° |
| 2026-05-04 13:00 | 42.08327 | -7.51022 | 30633 ft | 362 kts | 240° |
| 2026-05-04 13:00 | 42.07011 | -7.53856 | 30337 ft | 355 kts | 240° |
| 2026-05-04 13:00 | 42.05710 | -7.56655 | 29901 ft | 350 kts | 239° |
| 2026-05-04 13:01 | 42.04424 | -7.59414 | 29488 ft | 344 kts | 239° |
| 2026-05-04 13:01 | 42.03160 | -7.62120 | 29101 ft | 339 kts | 240° |
| 2026-05-04 13:01 | 42.01919 | -7.64777 | 28718 ft | 333 kts | 240° |
| 2026-05-04 13:01 | 42.00698 | -7.67382 | 28345 ft | 327 kts | 240° |
| 2026-05-04 13:02 | 41.99494 | -7.69950 | 27999 ft | 322 kts | 240° |
| 2026-05-04 13:02 | 41.98315 | -7.72469 | 27643 ft | 316 kts | 240° |
| 2026-05-04 13:02 | 41.97155 | -7.74946 | 27301 ft | 311 kts | 240° |
| 2026-05-04 13:02 | 41.96006 | -7.77399 | 26963 ft | 310 kts | 240° |
| 2026-05-04 13:03 | 41.94856 | -7.79849 | 26625 ft | 309 kts | 240° |
| 2026-05-04 13:03 | 41.93719 | -7.82274 | 26292 ft | 307 kts | 240° |
| 2026-05-04 13:03 | 41.92583 | -7.84693 | 25937 ft | 305 kts | 240° |
| 2026-05-04 13:03 | 41.91455 | -7.87099 | 25621 ft | 304 kts | 240° |
| 2026-05-04 13:04 | 41.90324 | -7.89499 | 25273 ft | 303 kts | 240° |
| 2026-05-04 13:04 | 41.89202 | -7.91879 | 24929 ft | 301 kts | 240° |
| 2026-05-04 13:04 | 41.88084 | -7.94247 | 24568 ft | 300 kts | 240° |
| 2026-05-04 13:04 | 41.86973 | -7.96599 | 24218 ft | 298 kts | 240° |
| 2026-05-04 13:05 | 41.85863 | -7.98946 | 23860 ft | 297 kts | 240° |
| 2026-05-04 13:05 | 41.84760 | -8.01275 | 23478 ft | 295 kts | 240° |
| 2026-05-04 13:05 | 41.83660 | -8.03595 | 23091 ft | 294 kts | 240° |
| 2026-05-04 13:05 | 41.82547 | -8.05890 | 22725 ft | 294 kts | 236° |
| 2026-05-04 13:06 | 41.81183 | -8.07939 | 22349 ft | 296 kts | 226° |
| 2026-05-04 13:06 | 41.79529 | -8.09608 | 21965 ft | 300 kts | 216° |
| 2026-05-04 13:06 | 41.77706 | -8.10976 | 21566 ft | 300 kts | 214° |
| 2026-05-04 13:06 | 41.75892 | -8.12329 | 21186 ft | 299 kts | 214° |
| 2026-05-04 13:07 | 41.74075 | -8.13688 | 20804 ft | 298 kts | 214° |
| 2026-05-04 13:07 | 41.72267 | -8.15040 | 20445 ft | 297 kts | 214° |
| 2026-05-04 13:07 | 41.70428 | -8.16305 | 19949 ft | 303 kts | 206° |
| 2026-05-04 13:07 | 41.68381 | -8.17271 | 19504 ft | 325 kts | 204° |
| 2026-05-04 13:08 | 41.66192 | -8.18293 | 19109 ft | 338 kts | 204° |
| 2026-05-04 13:08 | 41.63962 | -8.19323 | 18699 ft | 340 kts | 204° |
| 2026-05-04 13:08 | 41.61727 | -8.20346 | 18294 ft | 340 kts | 204° |
| 2026-05-04 13:08 | 41.59484 | -8.21368 | 17847 ft | 338 kts | 203° |
| 2026-05-04 13:09 | 41.57264 | -8.22379 | 17442 ft | 337 kts | 203° |
| 2026-05-04 13:09 | 41.55054 | -8.23385 | 17046 ft | 335 kts | 203° |
| 2026-05-04 13:09 | 41.52848 | -8.24391 | 16638 ft | 334 kts | 203° |
| 2026-05-04 13:09 | 41.50662 | -8.25392 | 16234 ft | 332 kts | 202° |
| 2026-05-04 13:10 | 41.48477 | -8.26389 | 15825 ft | 331 kts | 202° |
| 2026-05-04 13:10 | 41.46303 | -8.27380 | 15428 ft | 330 kts | 202° |
| 2026-05-04 13:10 | 41.44138 | -8.28367 | 15034 ft | 328 kts | 202° |
| 2026-05-04 13:10 | 41.41976 | -8.29354 | 14648 ft | 327 kts | 202° |
| 2026-05-04 13:11 | 41.39845 | -8.30379 | 14299 ft | 323 kts | 208° |
| 2026-05-04 13:11 | 41.37835 | -8.31697 | 14054 ft | 322 kts | 210° |
| 2026-05-04 13:11 | 41.35828 | -8.33046 | 13222 ft | 323 kts | 210° |
| 2026-05-04 13:11 | 41.33853 | -8.34386 | 12335 ft | 316 kts | 210° |
| 2026-05-04 13:12 | 41.31927 | -8.35693 | 11686 ft | 303 kts | 210° |
| 2026-05-04 13:12 | 41.30085 | -8.36939 | 11000 ft | 292 kts | 210° |
| 2026-05-04 13:12 | 41.28297 | -8.38148 | 10223 ft | 287 kts | 210° |
| 2026-05-04 13:12 | 41.26523 | -8.39346 | 9353 ft | 284 kts | 209° |
| 2026-05-04 13:13 | 41.24769 | -8.40532 | 8489 ft | 282 kts | 210° |
| 2026-05-04 13:13 | 41.23029 | -8.41710 | 7631 ft | 279 kts | 210° |
| 2026-05-04 13:13 | 41.21307 | -8.42879 | 6854 ft | 277 kts | 210° |
| 2026-05-04 13:13 | 41.19610 | -8.44030 | 6263 ft | 268 kts | 210° |
| 2026-05-04 13:14 | 41.17950 | -8.45151 | 5924 ft | 264 kts | 209° |
| 2026-05-04 13:14 | 41.16356 | -8.46220 | 5554 ft | 252 kts | 210° |
| 2026-05-04 13:14 | 41.14798 | -8.47269 | 5204 ft | 251 kts | 210° |
| 2026-05-04 13:14 | 41.13276 | -8.48295 | 4888 ft | 250 kts | 211° |
| 2026-05-04 13:15 | 41.11706 | -8.49361 | 4564 ft | 247 kts | 213° |
| 2026-05-04 13:15 | 41.10353 | -8.50703 | 4253 ft | 240 kts | 229° |
| 2026-05-04 13:15 | 41.09335 | -8.52415 | 3937 ft | 235 kts | 243° |
| 2026-05-04 13:15 | 41.08671 | -8.54366 | 3617 ft | 233 kts | 251° |
| 2026-05-04 13:16 | 41.08106 | -8.56322 | 3552 ft | 220 kts | 252° |
| 2026-05-04 13:16 | 41.07571 | -8.58163 | 3478 ft | 207 kts | 252° |
| 2026-05-04 13:16 | 41.07116 | -8.59916 | 3365 ft | 195 kts | 263° |
| 2026-05-04 13:16 | 41.07203 | -8.61659 | 3275 ft | 189 kts | 289° |
| 2026-05-04 13:17 | 41.07882 | -8.63114 | 3180 ft | 188 kts | 315° |
| 2026-05-04 13:17 | 41.09012 | -8.63988 | 3039 ft | 192 kts | 342° |
| 2026-05-04 13:17 | 41.10330 | -8.64343 | 2852 ft | 193 kts | 346° |
| 2026-05-04 13:17 | 41.11624 | -8.64674 | 2575 ft | 185 kts | 345° |
| 2026-05-04 13:18 | 41.12858 | -8.64991 | 2326 ft | 176 kts | 345° |
| 2026-05-04 13:18 | 41.14015 | -8.65289 | 2118 ft | 160 kts | 345° |
| 2026-05-04 13:18 | 41.15043 | -8.65552 | 1898 ft | 141 kts | 344° |
| 2026-05-04 13:18 | 41.15987 | -8.65798 | 1717 ft | 136 kts | 344° |
| 2026-05-04 13:19 | 41.16910 | -8.66040 | 1531 ft | 134 kts | 347° |
| 2026-05-04 13:19 | 41.17815 | -8.66277 | 1355 ft | 132 kts | 347° |
| 2026-05-04 13:19 | 41.18718 | -8.66514 | 1176 ft | 132 kts | 345° |
| 2026-05-04 13:19 | 41.19622 | -8.66751 | 1014 ft | 131 kts | 344° |
| 2026-05-04 13:20 | 41.20513 | -8.66985 | 840 ft | 131 kts | 345° |
| 2026-05-04 13:20 | 41.21406 | -8.67221 | 660 ft | 131 kts | 345° |
| 2026-05-04 13:20 | 41.22308 | -8.67459 | 480 ft | 132 kts | 344° |
| 2026-05-04 13:20 | 41.23203 | -8.67703 | 291 ft | 132 kts | 345° |
| 2026-05-04 13:21 | 41.24042 | -8.67935 | 221 ft | 95 kts | 349° |
| 2026-05-04 13:21 | 41.24465 | -8.68037 | 208 ft | 48 kts | 349° |
| 2026-05-04 13:21 | 41.24759 | -8.68114 | 200 ft | 38 kts | 349° |
| 2026-05-04 13:21 | 41.25013 | -8.68178 | 189 ft | 34 kts | 352° |
| 2026-05-04 13:22 | 41.25202 | -8.68141 | 182 ft | 22 kts | 15° |
| 2026-05-04 13:22 | 41.25294 | -8.68068 | 180 ft | 10 kts | 71° |
| 2026-05-04 13:22 | 41.25264 | -8.68014 | 182 ft | 7 kts | 156° |
| 2026-05-04 13:22 | 41.25222 | -8.68003 | 197 ft | 5 kts | 169° |
| 2026-05-04 13:23 | 41.25187 | -8.67993 | 186 ft | 7 kts | 169° |
| 2026-05-04 13:23 | 41.25101 | -8.67971 | 190 ft | 16 kts | 169° |
| 2026-05-04 13:23 | 41.24987 | -8.67942 | 193 ft | 17 kts | 169° |
| 2026-05-04 13:23 | 41.24879 | -8.67907 | 206 ft | 15 kts | 159° |
| 2026-05-04 13:24 | 41.24798 | -8.67851 | 207 ft | 12 kts | 151° |
| 2026-05-04 13:24 | 41.24723 | -8.67817 | 216 ft | 11 kts | 167° |
| 2026-05-04 13:24 | 41.24638 | -8.67795 | 213 ft | 15 kts | 169° |
| 2026-05-04 13:25 | 41.24369 | -8.67725 | 227 ft | 21 kts | 169° |
| 2026-05-04 13:25 | 41.24279 | -8.67661 | 233 ft | 11 kts | 126° |
| 2026-05-04 13:25 | 41.24237 | -8.67595 | 237 ft | 9 kts | 140° |
| 2026-05-04 13:25 | 41.24155 | -8.67561 | 238 ft | 16 kts | 171° |
| 2026-05-04 13:26 | 41.24038 | -8.67531 | 238 ft | 18 kts | 169° |
| 2026-05-04 13:26 | 41.23910 | -8.67499 | 238 ft | 20 kts | 169° |
| 2026-05-04 13:26 | 41.23783 | -8.67465 | 239 ft | 16 kts | 166° |
| 2026-05-04 13:26 | 41.23712 | -8.67376 | 241 ft | 10 kts | 117° |
| 2026-05-04 13:27 | 41.23721 | -8.67310 | 244 ft | 5 kts | 67° |
| 2026-05-04 13:27 | 41.23730 | -8.67276 | 245 ft | 3 kts | 69° |
| 2026-05-04 13:27 | 41.23732 | -8.67270 | 245 ft | 0 kts | 69° |